createdAt,value
2019-03-28T00:02:13.782Z,14.10
2019-03-28T00:04:51.295Z,14.83
2019-03-28T00:07:24.086Z,14.67
2019-03-28T00:09:59.122Z,13.97
2019-03-28T00:12:29.437Z,15.27
2019-03-28T00:14:59.767Z,14.00
2019-03-28T00:17:30.110Z,13.53
2019-03-28T00:20:00.435Z,14.50
2019-03-28T00:22:30.756Z,14.70
2019-03-28T00:25:03.970Z,15.23
2019-03-28T00:27:34.286Z,13.47
2019-03-28T00:30:04.605Z,14.27
2019-03-28T00:32:34.962Z,14.00
2019-03-28T00:35:05.278Z,14.90
2019-03-28T00:37:35.609Z,14.07
2019-03-28T00:40:05.955Z,15.30
2019-03-28T00:42:36.283Z,15.37
2019-03-28T00:45:06.599Z,16.60
2019-03-28T00:47:36.961Z,17.07
2019-03-28T00:50:07.718Z,16.33
2019-03-28T00:52:37.668Z,17.50
2019-03-28T00:55:27.305Z,17.00
2019-03-28T00:57:57.631Z,17.40
2019-03-28T01:00:27.950Z,15.53
2019-03-28T01:02:58.299Z,15.30
2019-03-28T01:05:29.387Z,14.53
2019-03-28T01:08:05.868Z,14.83
2019-03-28T01:10:55.558Z,15.67
2019-03-28T01:13:26.946Z,14.77
2019-03-28T01:15:58.038Z,15.40
2019-03-28T01:18:34.518Z,15.07
2019-03-28T01:21:04.853Z,15.27
2019-03-28T01:23:35.164Z,16.07
2019-03-28T01:26:05.515Z,16.33
2019-03-28T01:28:35.839Z,16.83
2019-03-28T01:31:06.166Z,15.77
2019-03-28T01:33:36.521Z,15.80
2019-03-28T01:36:06.840Z,14.87
2019-03-28T01:38:37.158Z,16.00
2019-03-28T01:41:08.283Z,14.90
2019-03-28T01:43:38.596Z,14.83
2019-03-28T01:46:08.911Z,15.00
2019-03-28T01:48:39.254Z,14.40
2019-03-28T01:51:09.577Z,14.67
2019-03-28T01:53:39.900Z,15.93
2019-03-28T01:56:10.780Z,16.03
2019-03-28T01:58:41.341Z,15.90
2019-03-28T02:01:33.663Z,16.03
2019-03-28T02:04:03.980Z,17.60
2019-03-28T02:06:35.325Z,17.07
2019-03-28T02:09:06.706Z,17.00
2019-03-28T02:11:37.298Z,18.10
2019-03-28T02:14:07.619Z,19.07
2019-03-28T02:16:38.725Z,20.00
2019-03-28T02:19:09.052Z,18.10
2019-03-28T02:21:39.371Z,16.77
2019-03-28T02:24:10.492Z,17.53
2019-03-28T02:26:44.916Z,17.03
2019-03-28T02:29:17.308Z,16.90
2019-03-28T02:31:47.626Z,17.83
2019-03-28T02:34:17.968Z,18.20
2019-03-28T02:36:52.403Z,17.80
2019-03-28T02:39:22.740Z,18.67
2019-03-28T02:41:53.053Z,17.43
2019-03-28T02:44:23.644Z,16.03
2019-03-28T02:46:53.983Z,17.73
2019-03-28T02:49:25.349Z,15.93
2019-03-28T02:54:38.114Z,16.60
2019-03-28T02:57:08.453Z,16.07
2019-03-28T02:59:39.791Z,16.77
2019-03-28T03:02:10.113Z,17.50
2019-03-28T03:04:41.218Z,17.07
2019-03-28T03:07:11.551Z,18.17
2019-03-28T03:09:41.933Z,18.03
2019-03-28T03:12:12.224Z,17.03
2019-03-28T03:14:43.311Z,17.70
2019-03-28T03:17:13.644Z,18.37
2019-03-28T03:19:43.986Z,16.33
2019-03-28T03:22:14.303Z,16.30
2019-03-28T03:24:44.627Z,17.57
2019-03-28T03:27:36.384Z,17.27
2019-03-28T03:30:09.513Z,18.77
2019-03-28T03:32:39.825Z,17.67
2019-03-28T03:35:10.179Z,17.87
2019-03-28T03:37:40.502Z,16.47
2019-03-28T03:40:12.881Z,17.67
2019-03-28T03:42:43.231Z,17.73
2019-03-28T03:45:18.940Z,18.17
2019-03-28T03:47:50.041Z,18.33
2019-03-28T03:50:25.721Z,18.00
2019-03-28T03:52:56.845Z,19.17
2019-03-28T03:55:27.155Z,18.60
2019-03-28T03:58:13.778Z,18.70
2019-03-28T04:00:30.423Z,19.33
2019-03-28T04:03:20.025Z,18.07
2019-03-28T04:05:50.375Z,18.70
2019-03-28T04:08:20.699Z,18.97
2019-03-28T04:10:51.018Z,19.83
2019-03-28T04:13:21.369Z,17.67
2019-03-28T04:15:52.457Z,17.40
2019-03-28T04:18:26.867Z,17.70
2019-03-28T04:20:57.224Z,17.30
2019-03-28T04:23:27.543Z,17.20
2019-03-28T04:25:57.868Z,18.43
2019-03-28T04:28:32.656Z,17.73
2019-03-28T04:31:01.596Z,18.57
2019-03-28T04:33:31.916Z,18.50
2019-03-28T04:36:02.262Z,17.63
2019-03-28T04:38:32.590Z,17.47
2019-03-28T04:41:02.912Z,19.20
2019-03-28T04:43:33.262Z,17.80
2019-03-28T04:46:03.579Z,18.40
2019-03-28T04:48:34.662Z,18.23
2019-03-28T04:51:08.083Z,19.23
2019-03-28T04:53:38.407Z,18.30
2019-03-28T04:56:08.731Z,18.47
2019-03-28T04:58:44.654Z,17.47
2019-03-28T05:01:09.405Z,18.53
2019-03-28T05:03:39.726Z,19.57
2019-03-28T05:06:10.081Z,17.67
2019-03-28T05:08:40.413Z,18.07
2019-03-28T05:11:11.498Z,18.87
2019-03-28T05:13:47.977Z,18.57
2019-03-28T05:16:18.296Z,17.47
2019-03-28T05:18:48.669Z,19.40
2019-03-28T05:21:19.036Z,18.27
2019-03-28T05:23:56.673Z,19.03
2019-03-28T05:26:27.026Z,19.17
2019-03-28T05:28:58.830Z,18.47
2019-03-28T05:31:27.671Z,19.57
2019-03-28T05:33:58.024Z,17.13
2019-03-28T05:36:28.351Z,16.60
2019-03-28T05:38:58.679Z,18.10
2019-03-28T05:41:34.137Z,18.30
2019-03-28T05:44:04.462Z,18.07
2019-03-28T05:46:55.201Z,18.37
2019-03-28T05:49:25.527Z,18.83
2019-03-28T05:51:55.849Z,17.93
2019-03-28T05:54:26.199Z,16.97
2019-03-28T05:56:56.525Z,18.70
2019-03-28T05:59:26.847Z,18.60
2019-03-28T06:01:57.202Z,19.37
2019-03-28T06:04:27.525Z,18.20
2019-03-28T06:06:57.848Z,18.07
2019-03-28T06:09:28.190Z,18.33
2019-03-28T06:12:01.580Z,19.30
2019-03-28T06:14:51.305Z,17.53
2019-03-28T06:17:21.628Z,18.27
2019-03-28T06:19:51.952Z,17.60
2019-03-28T06:22:23.073Z,18.50
2019-03-28T06:24:53.391Z,16.70
2019-03-28T06:27:23.725Z,19.13
2019-03-28T06:29:54.079Z,18.17
2019-03-28T06:32:26.194Z,18.60
2019-03-28T06:34:56.517Z,17.87
2019-03-28T06:37:33.008Z,18.27
2019-03-28T06:40:03.363Z,14.93
2019-03-28T06:42:33.684Z,19.10
2019-03-28T06:45:04.162Z,18.27
2019-03-28T06:47:35.105Z,18.10
2019-03-28T06:50:07.959Z,17.73
2019-03-28T06:52:38.310Z,18.50
2019-03-28T06:55:08.637Z,17.30
2019-03-28T06:57:38.960Z,18.00
2019-03-28T07:02:53.298Z,18.20
2019-03-28T07:05:25.427Z,18.23
2019-03-28T07:07:55.742Z,19.10
2019-03-28T07:10:45.459Z,19.27
2019-03-28T07:13:15.778Z,19.93
2019-03-28T07:15:46.101Z,18.90
2019-03-28T07:18:16.439Z,18.70
2019-03-28T07:20:48.807Z,18.13
2019-03-28T07:23:19.894Z,19.03
2019-03-28T07:25:50.239Z,19.67
2019-03-28T07:28:20.565Z,18.27
2019-03-28T07:30:52.930Z,18.73
2019-03-28T07:33:23.295Z,18.30
2019-03-28T07:35:53.659Z,19.20
2019-03-28T07:38:23.979Z,18.63
2019-03-28T07:40:54.339Z,18.23
2019-03-28T07:43:26.710Z,17.80
2019-03-28T07:46:03.535Z,19.17
2019-03-28T07:48:34.640Z,20.07
2019-03-28T07:51:04.970Z,20.37
2019-03-28T07:53:37.352Z,19.87
2019-03-28T07:56:09.714Z,19.37
2019-03-28T07:58:40.046Z,20.27
2019-03-28T08:01:10.426Z,20.70
2019-03-28T08:03:40.750Z,20.57
2019-03-28T08:06:12.710Z,19.77
2019-03-28T08:08:44.047Z,20.30
2019-03-28T08:11:11.778Z,21.03
2019-03-28T08:13:42.068Z,19.80
2019-03-28T08:16:12.416Z,19.03
2019-03-28T08:18:42.738Z,21.10
2019-03-28T08:21:32.453Z,19.77
2019-03-28T08:24:03.584Z,20.90
2019-03-28T08:26:33.970Z,19.20
2019-03-28T08:29:06.396Z,19.63
2019-03-28T08:31:40.575Z,19.77
2019-03-28T08:34:15.003Z,19.27
2019-03-28T08:36:45.326Z,19.43
2019-03-28T08:39:19.728Z,20.13
2019-03-28T08:41:52.123Z,19.23
2019-03-28T08:44:22.911Z,19.40
2019-03-28T08:46:52.766Z,18.70
2019-03-28T08:49:23.121Z,18.67
2019-03-28T08:51:53.437Z,18.83
2019-03-28T08:54:23.760Z,19.13
2019-03-28T08:56:54.106Z,18.50
2019-03-28T08:59:28.115Z,19.60
2019-03-28T09:01:58.373Z,18.67
2019-03-28T09:04:28.730Z,17.57
2019-03-28T09:06:59.056Z,17.83
2019-03-28T09:09:29.464Z,19.37
2019-03-28T09:11:59.805Z,18.53
2019-03-28T09:14:51.653Z,18.50
2019-03-28T09:17:23.791Z,19.30
2019-03-28T09:19:52.369Z,20.87
2019-03-28T09:22:22.696Z,19.03
2019-03-28T09:24:57.141Z,18.73
2019-03-28T09:27:27.913Z,19.97
2019-03-28T09:29:59.292Z,17.30
2019-03-28T09:32:29.663Z,18.93
2019-03-28T09:35:00.007Z,18.93
2019-03-28T09:37:31.134Z,18.93
2019-03-28T09:40:01.508Z,19.10
2019-03-28T09:42:31.864Z,19.70
2019-03-28T09:45:06.329Z,19.17
2019-03-28T09:47:37.474Z,18.83
2019-03-28T09:50:08.591Z,17.00
2019-03-28T09:52:38.908Z,18.27
2019-03-28T09:55:28.652Z,18.63
2019-03-28T09:57:59.002Z,20.20
2019-03-28T10:00:34.556Z,20.70
2019-03-28T10:03:07.857Z,18.43
2019-03-28T10:05:57.852Z,18.60
2019-03-28T10:08:28.996Z,18.87
2019-03-28T10:10:59.354Z,18.97
2019-03-28T10:13:30.466Z,18.37
2019-03-28T10:16:00.854Z,17.40
2019-03-28T10:18:31.201Z,16.93
2019-03-28T10:21:20.667Z,17.17
2019-03-28T10:24:10.158Z,16.47
2019-03-28T10:26:40.540Z,17.03
2019-03-28T10:29:10.948Z,17.47
2019-03-28T10:31:41.555Z,15.67
2019-03-28T10:34:11.951Z,17.20
2019-03-28T10:36:42.291Z,15.97
2019-03-28T10:39:31.778Z,17.50
2019-03-28T10:42:02.131Z,16.97
2019-03-28T10:44:33.263Z,17.43
2019-03-28T10:47:04.970Z,16.87
2019-03-28T10:49:33.998Z,15.90
2019-03-28T10:52:04.280Z,16.97
2019-03-28T10:54:34.705Z,15.93
2019-03-28T10:57:13.692Z,15.77
2019-03-28T10:59:35.366Z,16.83
2019-03-28T11:02:05.717Z,17.03
2019-03-28T11:04:37.065Z,17.60
2019-03-28T11:07:07.391Z,18.27
2019-03-28T11:09:37.773Z,17.40
2019-03-28T11:12:08.106Z,16.87
2019-03-28T11:14:38.425Z,13.30
2019-03-28T11:19:50.443Z,15.47
2019-03-28T11:22:20.788Z,15.37
2019-03-28T11:24:52.139Z,15.40
2019-03-28T11:27:23.552Z,15.43
2019-03-28T11:29:53.867Z,14.87
2019-03-28T11:32:25.338Z,15.30
2019-03-28T11:34:55.660Z,13.67
2019-03-28T11:37:28.212Z,14.77
2019-03-28T11:39:57.111Z,15.50
2019-03-28T11:42:28.203Z,15.00
2019-03-28T11:45:01.625Z,14.67
2019-03-28T11:47:31.949Z,14.20
2019-03-28T11:50:02.281Z,12.97
2019-03-28T11:52:32.627Z,13.57
2019-03-28T11:55:02.949Z,15.27
2019-03-28T11:57:33.277Z,14.43
2019-03-28T12:00:03.628Z,14.13
2019-03-28T12:02:33.960Z,14.43
2019-03-28T12:05:04.293Z,13.63
2019-03-28T12:07:34.640Z,14.90
2019-03-28T12:10:06.007Z,14.63
2019-03-28T12:12:36.333Z,14.13
2019-03-28T12:15:09.651Z,14.73
2019-03-28T12:17:40.751Z,14.20
2019-03-28T12:20:15.169Z,14.47
2019-03-28T12:22:55.986Z,15.20
2019-03-28T12:25:23.165Z,16.33
2019-03-28T12:27:53.497Z,14.23
2019-03-28T12:30:23.846Z,15.47
2019-03-28T12:33:00.315Z,14.50
2019-03-28T12:35:31.679Z,13.33
2019-03-28T12:38:02.586Z,13.77
2019-03-28T12:40:32.332Z,14.17
2019-03-28T12:43:02.689Z,14.77
2019-03-28T12:45:33.019Z,13.73
2019-03-28T12:48:04.104Z,15.40
2019-03-28T12:50:34.465Z,15.97
2019-03-28T12:53:04.798Z,15.70
2019-03-28T12:55:36.155Z,14.67
2019-03-28T12:58:07.329Z,16.20
2019-03-28T13:00:37.659Z,14.87
2019-03-28T13:03:08.013Z,15.47
2019-03-28T13:05:42.482Z,16.03
2019-03-28T13:08:13.574Z,15.00
2019-03-28T13:11:03.292Z,15.13
2019-03-28T13:13:33.623Z,16.17
2019-03-28T13:16:05.477Z,15.20
2019-03-28T13:18:57.300Z,14.93
2019-03-28T13:21:27.632Z,16.90
2019-03-28T13:23:58.724Z,15.70
2019-03-28T13:26:29.084Z,14.63
2019-03-28T13:28:59.428Z,14.13
2019-03-28T13:31:29.742Z,13.63
2019-03-28T13:34:01.388Z,13.87
2019-03-28T13:36:30.788Z,14.53
2019-03-28T13:39:01.176Z,14.23
2019-03-28T13:41:31.518Z,14.07
2019-03-28T13:44:07.994Z,14.37
2019-03-28T13:46:45.650Z,14.63
2019-03-28T13:49:16.738Z,15.10
2019-03-28T13:51:47.070Z,14.63
2019-03-28T13:54:37.802Z,13.20
2019-03-28T13:57:08.898Z,15.93
2019-03-28T13:59:41.267Z,14.07
2019-03-28T14:02:15.711Z,13.97
2019-03-28T14:04:46.035Z,12.83
2019-03-28T14:07:17.458Z,14.23
2019-03-28T14:09:46.718Z,14.23
2019-03-28T14:12:17.866Z,14.77
2019-03-28T14:14:48.971Z,13.43
2019-03-28T14:17:19.683Z,14.60
2019-03-28T14:19:49.647Z,13.67
2019-03-28T14:22:19.980Z,13.53
2019-03-28T14:24:50.349Z,13.60
2019-03-28T14:27:20.675Z,13.70
2019-03-28T14:29:53.048Z,13.63
2019-03-28T14:32:23.399Z,11.60
2019-03-28T14:34:53.728Z,13.63
2019-03-28T14:37:24.049Z,14.07
2019-03-28T14:39:54.422Z,13.17
2019-03-28T14:42:25.509Z,13.87
2019-03-28T14:44:55.830Z,14.40
2019-03-28T14:47:28.235Z,14.60
2019-03-28T14:49:58.561Z,15.57
2019-03-28T14:52:28.937Z,14.57
2019-03-28T14:55:01.549Z,14.70
2019-03-28T14:57:31.985Z,15.03
2019-03-28T15:02:49.058Z,16.37
2019-03-28T15:05:21.169Z,17.13
2019-03-28T15:07:56.630Z,17.33
2019-03-28T15:10:27.696Z,17.33
2019-03-28T15:12:57.277Z,16.77
2019-03-28T15:15:27.749Z,17.33
2019-03-28T15:17:58.071Z,16.73
2019-03-28T15:20:30.181Z,17.13
2019-03-28T15:23:20.668Z,16.00
2019-03-28T15:25:55.086Z,17.17
2019-03-28T15:28:25.404Z,16.43
2019-03-28T15:30:55.958Z,16.93
2019-03-28T15:33:38.636Z,17.20
2019-03-28T15:35:56.522Z,16.07
2019-03-28T15:38:26.883Z,15.10
2019-03-28T15:40:57.958Z,14.60
2019-03-28T15:43:29.299Z,14.77
2019-03-28T15:45:59.765Z,16.47
2019-03-28T15:48:29.999Z,16.90
2019-03-28T15:51:00.318Z,15.93
2019-03-28T15:53:30.669Z,15.47
2019-03-28T15:56:01.758Z,17.43
2019-03-28T15:58:32.096Z,16.50
2019-03-28T16:01:04.497Z,14.93
2019-03-28T16:03:34.830Z,14.87
2019-03-28T16:06:05.153Z,15.40
2019-03-28T16:08:35.515Z,15.83
2019-03-28T16:11:05.837Z,13.10
2019-03-28T16:13:37.659Z,14.30
2019-03-28T16:16:06.562Z,14.83
2019-03-28T16:18:37.740Z,15.97
2019-03-28T16:21:10.041Z,13.93
2019-03-28T16:23:45.505Z,14.53
2019-03-28T16:26:15.900Z,13.50
2019-03-28T16:28:46.160Z,14.47
2019-03-28T16:31:16.524Z,14.07
2019-03-28T16:33:46.877Z,14.50
2019-03-28T16:36:24.535Z,14.57
2019-03-28T16:38:55.629Z,14.57
2019-03-28T16:41:26.971Z,15.27
2019-03-28T16:44:03.467Z,13.60
2019-03-28T16:46:33.795Z,15.13
2019-03-28T16:49:04.182Z,14.03
2019-03-28T16:51:34.539Z,14.87
2019-03-28T16:54:04.865Z,13.53
2019-03-28T16:56:35.187Z,13.47
2019-03-28T16:59:05.534Z,14.50
2019-03-28T17:01:36.985Z,14.37
2019-03-28T17:04:20.121Z,13.07
2019-03-28T17:06:37.602Z,14.23
2019-03-28T17:09:08.077Z,13.67
2019-03-28T17:11:38.407Z,13.17
2019-03-28T17:14:09.606Z,13.83
2019-03-28T17:16:59.293Z,13.67
2019-03-28T17:19:29.648Z,13.60
2019-03-28T17:22:00.729Z,13.33
2019-03-28T17:24:31.052Z,13.10
2019-03-28T17:27:01.448Z,14.83
2019-03-28T17:29:31.771Z,14.50
2019-03-28T17:32:02.863Z,13.20
2019-03-28T17:34:37.021Z,14.10
2019-03-28T17:37:05.583Z,13.43
2019-03-28T17:39:35.910Z,13.70
2019-03-28T17:42:06.426Z,12.90
2019-03-28T17:44:37.359Z,12.73
2019-03-28T17:47:27.085Z,13.20
2019-03-28T17:49:58.274Z,12.50
2019-03-28T17:52:48.015Z,13.07
2019-03-28T17:55:19.843Z,13.37
2019-03-28T17:58:08.826Z,11.90
2019-03-28T18:00:39.916Z,14.73
2019-03-28T18:03:14.337Z,14.57
2019-03-28T18:05:57.396Z,12.97
2019-03-28T18:08:17.055Z,12.83
2019-03-28T18:10:47.384Z,13.27
2019-03-28T18:13:17.730Z,12.03
2019-03-28T18:15:48.057Z,11.30
2019-03-28T18:18:18.376Z,11.60
2019-03-28T18:20:48.737Z,11.70
2019-03-28T18:23:19.819Z,12.63
2019-03-28T18:26:09.801Z,12.00
2019-03-28T18:28:40.122Z,13.07
2019-03-28T18:31:29.576Z,12.50
2019-03-28T18:33:59.900Z,11.50
2019-03-28T18:36:30.219Z,12.03
2019-03-28T18:39:00.580Z,12.23
2019-03-28T18:41:51.301Z,12.70
2019-03-28T18:44:21.652Z,14.40
2019-03-28T18:46:52.087Z,13.20
2019-03-28T18:49:22.294Z,13.07
2019-03-28T18:51:53.764Z,13.07
2019-03-28T18:54:24.852Z,12.93
2019-03-28T18:57:03.287Z,12.73
2019-03-28T18:59:31.670Z,12.80
2019-03-28T19:02:01.995Z,12.60
2019-03-28T19:04:33.367Z,12.73
2019-03-28T19:07:03.693Z,20.95
2019-03-28T19:09:34.786Z,15.10
2019-03-28T19:12:24.238Z,14.40
2019-03-28T19:14:54.575Z,13.40
2019-03-28T19:20:07.640Z,13.73
2019-03-28T19:22:37.970Z,14.10
2019-03-28T19:25:09.330Z,13.97
2019-03-28T19:27:40.440Z,14.73
2019-03-28T19:30:10.761Z,14.63
2019-03-28T19:32:41.088Z,14.30
2019-03-28T19:35:14.496Z,14.47
2019-03-28T19:38:09.115Z,14.97
2019-03-28T19:40:38.105Z,14.67
2019-03-28T19:43:19.627Z,14.67
2019-03-28T19:45:38.762Z,14.27
2019-03-28T19:48:09.103Z,12.97
2019-03-28T19:50:40.276Z,14.17
2019-03-28T19:53:12.174Z,14.10
2019-03-28T19:55:43.245Z,13.90
2019-03-28T19:58:14.001Z,14.50
2019-03-28T20:00:44.209Z,13.30
2019-03-28T20:03:15.010Z,15.37
2019-03-28T20:05:49.332Z,14.20
2019-03-28T20:08:18.382Z,14.93
2019-03-28T20:10:48.296Z,14.10
2019-03-28T20:13:18.621Z,15.20
2019-03-28T20:15:48.971Z,13.90
2019-03-28T20:18:24.414Z,14.40
2019-03-28T20:20:55.743Z,13.97
2019-03-28T20:23:30.187Z,14.70
2019-03-28T20:26:02.578Z,15.60
2019-03-28T20:28:54.052Z,14.57
2019-03-28T20:31:24.400Z,15.53
2019-03-28T20:33:54.721Z,15.00
2019-03-28T20:36:37.609Z,14.87
2019-03-28T20:39:03.781Z,14.97
2019-03-28T20:41:25.710Z,15.40
2019-03-28T20:44:15.147Z,14.67
2019-03-28T20:46:46.230Z,14.53
2019-03-28T20:49:16.596Z,14.83
2019-03-28T20:51:46.917Z,15.50
2019-03-28T20:54:17.234Z,15.60
2019-03-28T20:56:47.586Z,16.07
2019-03-28T20:59:17.911Z,14.63
2019-03-28T21:01:48.993Z,14.97
2019-03-28T21:04:31.101Z,14.43
2019-03-28T21:06:51.718Z,15.07
2019-03-28T21:09:23.055Z,14.23
2019-03-28T21:11:53.395Z,15.30
2019-03-28T21:14:25.764Z,15.50
2019-03-28T21:17:18.530Z,14.37
2019-03-28T21:19:49.877Z,16.63
2019-03-28T21:22:20.898Z,15.63
2019-03-28T21:24:50.543Z,15.97
2019-03-28T21:27:20.978Z,14.07
2019-03-28T21:29:51.349Z,14.30
2019-03-28T21:32:21.529Z,14.67
2019-03-28T21:34:56.176Z,15.10
2019-03-28T21:37:29.094Z,15.23
2019-03-28T21:40:04.529Z,15.40
2019-03-28T21:42:39.984Z,15.23
2019-03-28T21:45:10.304Z,15.20
2019-03-28T21:48:02.842Z,15.67
2019-03-28T21:50:39.298Z,15.67
2019-03-28T21:53:09.656Z,16.40
2019-03-28T21:55:54.507Z,16.70
2019-03-28T21:58:11.842Z,14.77
2019-03-28T22:01:01.554Z,16.07
2019-03-28T22:03:32.642Z,15.63
2019-03-28T22:06:02.962Z,14.70
2019-03-28T22:08:35.358Z,14.30
2019-03-28T22:11:08.740Z,14.73
2019-03-28T22:13:39.061Z,14.70
2019-03-28T22:16:09.398Z,14.57
2019-03-28T22:18:43.806Z,15.80
2019-03-28T22:21:14.131Z,15.40
2019-03-28T22:23:46.718Z,16.03
2019-03-28T22:26:34.153Z,15.77
2019-03-28T22:29:25.918Z,14.47
2019-03-28T22:31:57.203Z,16.00
2019-03-28T22:34:28.357Z,16.03
2019-03-28T22:37:03.683Z,14.70
2019-03-28T22:39:52.225Z,15.37
2019-03-28T22:42:23.331Z,15.03
2019-03-28T22:44:53.645Z,14.37
2019-03-28T22:47:23.962Z,16.30
2019-03-28T22:50:13.679Z,15.90
2019-03-28T22:52:44.768Z,15.37
2019-03-28T22:55:16.388Z,15.03
2019-03-28T22:57:47.494Z,13.90
2019-03-28T23:00:18.807Z,15.57
2019-03-28T23:02:48.140Z,14.13
2019-03-28T23:05:22.579Z,15.50
2019-03-28T23:07:52.900Z,13.73
2019-03-28T23:10:23.226Z,14.73
2019-03-28T23:12:53.567Z,13.97
2019-03-28T23:15:24.657Z,14.13
2019-03-28T23:17:54.978Z,15.13
2019-03-28T23:20:25.324Z,15.07
2019-03-28T23:23:17.063Z,15.50
2019-03-28T23:25:47.414Z,15.30
2019-03-28T23:28:18.976Z,15.53
2019-03-28T23:30:51.890Z,15.60
2019-03-28T23:33:22.249Z,14.60
2019-03-28T23:35:56.657Z,15.23
2019-03-28T23:38:46.376Z,14.73
2019-03-28T23:43:59.434Z,15.50
2019-03-28T23:46:30.520Z,15.53
2019-03-28T23:49:00.896Z,15.17
2019-03-28T23:51:32.013Z,15.57
2019-03-28T23:54:02.329Z,15.13
2019-03-28T23:56:32.648Z,16.17
2019-03-28T23:59:05.283Z,15.00
